Accueil
METAR-TAF:

METAR-TAF

Aéroports :

Augsbourg, Allemagne

latitude: 48-26N, longitude: 010-56E, altitude: 461 m

Observation

Le bulletin a été fait il y a 39 minutes, à 22:20 UTC
Vent 7 kt de sud
Température 11°C
Humidité 76%
Pression 1002 hPa
Visibilité 10 km ou plus

METAR: EDMA 262220Z AUTO 17007KT 9999 OVC100/// 11/07 Q1002

Heure: 00:59 (22:59 UTC)

Prévision

Le bulletin a été fait il y a 5 heures et 59 minutes, à 17:00 UTC
Prévision valable du 26 à 18 UTC au 27 à 03 UTC
Vent 10 kt de sud-ouest
Visibilité 10 km ou plus
Quelques nuages à une hauteur de 3000 ft
Evoluant progressivement
du 26 à 18 UTC au 26 à 20 UTC
Vent 5 kt de sud/sud-ouest
Temporairement
du 27 à 00 UTC au 27 à 03 UTC
pluie

TAF: EDMA 261700Z 2618/2703 23010KT 9999 FEW030 BECMG 2618/2620 20005KT TEMPO 2700/2703 RA

Observations et prévisions météorologiques de plus de 4000 aéroports (messages METAR et TAF).

Les stations disponibles sont représentées par des disques jaunes et rouges sur la carte.

Passer la souris dessus pour voir le nom de la station.

Cliquer dessus pour voir les observations et prévisions météorologiques.

Pour changer de carte: cliquez sur les boutons verts avec une croix noire pour zoomer, sur le bouton vert avec un tiret pour effectuer un zoom arrière, ou sur les flèches vertes pour les cartes adjacentes.


METAR-TAF: